sensor_id;sensor_type;location;lat;lon;timestamp;pressure;altitude;pressure_sealevel;temperature
18704;BMP180;9481;48.796;9.210;2022-10-31T00:00:20;97049.00;;;21.20
18704;BMP180;9481;48.796;9.210;2022-10-31T00:02:45;97049.00;;;21.20
18704;BMP180;9481;48.796;9.210;2022-10-31T00:05:11;97046.00;;;21.20
18704;BMP180;9481;48.796;9.210;2022-10-31T00:07:37;97046.00;;;21.10
18704;BMP180;9481;48.796;9.210;2022-10-31T00:10:03;97046.00;;;21.10
18704;BMP180;9481;48.796;9.210;2022-10-31T00:12:29;97053.00;;;21.10
18704;BMP180;9481;48.796;9.210;2022-10-31T00:14:54;97050.00;;;21.10
18704;BMP180;9481;48.796;9.210;2022-10-31T00:17:20;97043.00;;;21.10
18704;BMP180;9481;48.796;9.210;2022-10-31T00:19:45;97043.00;;;21.10
18704;BMP180;9481;48.796;9.210;2022-10-31T00:22:11;97043.00;;;21.00
18704;BMP180;9481;48.796;9.210;2022-10-31T00:24:37;97037.00;;;21.00
18704;BMP180;9481;48.796;9.210;2022-10-31T00:27:02;97039.00;;;21.00
18704;BMP180;9481;48.796;9.210;2022-10-31T00:29:28;97044.00;;;21.00
18704;BMP180;9481;48.796;9.210;2022-10-31T00:31:54;97051.00;;;21.00
18704;BMP180;9481;48.796;9.210;2022-10-31T00:34:19;97043.00;;;20.90
18704;BMP180;9481;48.796;9.210;2022-10-31T00:36:45;97038.00;;;20.90
18704;BMP180;9481;48.796;9.210;2022-10-31T00:39:11;97046.00;;;20.90
18704;BMP180;9481;48.796;9.210;2022-10-31T00:41:36;97046.00;;;20.90
18704;BMP180;9481;48.796;9.210;2022-10-31T00:44:02;97042.00;;;20.90
18704;BMP180;9481;48.796;9.210;2022-10-31T00:46:27;97046.00;;;20.90
18704;BMP180;9481;48.796;9.210;2022-10-31T00:48:53;97043.00;;;20.80
18704;BMP180;9481;48.796;9.210;2022-10-31T00:51:19;97042.00;;;20.80
18704;BMP180;9481;48.796;9.210;2022-10-31T00:53:45;97041.00;;;20.80
18704;BMP180;9481;48.796;9.210;2022-10-31T00:56:10;97047.00;;;20.80
18704;BMP180;9481;48.796;9.210;2022-10-31T00:58:36;97040.00;;;20.80
18704;BMP180;9481;48.796;9.210;2022-10-31T01:01:03;97036.00;;;20.70
18704;BMP180;9481;48.796;9.210;2022-10-31T01:03:32;97046.00;;;20.70
18704;BMP180;9481;48.796;9.210;2022-10-31T01:06:08;97039.00;;;20.70
18704;BMP180;9481;48.796;9.210;2022-10-31T01:08:35;97043.00;;;20.70
18704;BMP180;9481;48.796;9.210;2022-10-31T01:11:08;97040.00;;;20.70
18704;BMP180;9481;48.796;9.210;2022-10-31T01:13:35;97039.00;;;20.70
18704;BMP180;9481;48.796;9.210;2022-10-31T01:16:04;97043.00;;;20.70
18704;BMP180;9481;48.796;9.210;2022-10-31T01:18:30;97042.00;;;20.70
18704;BMP180;9481;48.796;9.210;2022-10-31T01:21:13;97040.00;;;20.60
18704;BMP180;9481;48.796;9.210;2022-10-31T01:23:39;97037.00;;;20.60
18704;BMP180;9481;48.796;9.210;2022-10-31T01:26:14;97037.00;;;20.60
18704;BMP180;9481;48.796;9.210;2022-10-31T01:28:54;97033.00;;;20.50
18704;BMP180;9481;48.796;9.210;2022-10-31T01:31:23;97041.00;;;20.50
18704;BMP180;9481;48.796;9.210;2022-10-31T01:33:50;97037.00;;;20.50
18704;BMP180;9481;48.796;9.210;2022-10-31T01:36:26;97042.00;;;20.50
18704;BMP180;9481;48.796;9.210;2022-10-31T01:38:55;97031.00;;;20.50
18704;BMP180;9481;48.796;9.210;2022-10-31T01:41:26;97028.00;;;20.50
18704;BMP180;9481;48.796;9.210;2022-10-31T01:43:59;97036.00;;;20.40
18704;BMP180;9481;48.796;9.210;2022-10-31T01:46:56;97038.00;;;20.40
18704;BMP180;9481;48.796;9.210;2022-10-31T01:49:51;97032.00;;;20.30
18704;BMP180;9481;48.796;9.210;2022-10-31T01:52:23;97026.00;;;20.30
18704;BMP180;9481;48.796;9.210;2022-10-31T01:55:06;97035.00;;;20.30
18704;BMP180;9481;48.796;9.210;2022-10-31T01:57:37;97030.00;;;20.30
18704;BMP180;9481;48.796;9.210;2022-10-31T02:00:09;97018.00;;;20.30
18704;BMP180;9481;48.796;9.210;2022-10-31T02:02:35;97021.00;;;20.30
18704;BMP180;9481;48.796;9.210;2022-10-31T02:05:07;97014.00;;;20.30
18704;BMP180;9481;48.796;9.210;2022-10-31T02:07:58;97018.00;;;20.20
18704;BMP180;9481;48.796;9.210;2022-10-31T02:10:26;97018.00;;;20.30
18704;BMP180;9481;48.796;9.210;2022-10-31T02:12:56;97016.00;;;20.20
18704;BMP180;9481;48.796;9.210;2022-10-31T02:15:23;97019.00;;;20.20
18704;BMP180;9481;48.796;9.210;2022-10-31T02:17:51;97014.00;;;20.20
18704;BMP180;9481;48.796;9.210;2022-10-31T02:20:23;97025.00;;;20.20
18704;BMP180;9481;48.796;9.210;2022-10-31T02:32:38;97019.00;;;20.00
18704;BMP180;9481;48.796;9.210;2022-10-31T02:35:49;97010.00;;;20.00
18704;BMP180;9481;48.796;9.210;2022-10-31T02:38:32;97013.00;;;20.00
18704;BMP180;9481;48.796;9.210;2022-10-31T02:41:24;97011.00;;;20.00
18704;BMP180;9481;48.796;9.210;2022-10-31T02:44:08;97013.00;;;20.00
18704;BMP180;9481;48.796;9.210;2022-10-31T02:46:44;97012.00;;;20.00
18704;BMP180;9481;48.796;9.210;2022-10-31T02:49:55;97012.00;;;19.90
18704;BMP180;9481;48.796;9.210;2022-10-31T02:52:29;97016.00;;;20.00
18704;BMP180;9481;48.796;9.210;2022-10-31T02:54:56;97020.00;;;20.00
18704;BMP180;9481;48.796;9.210;2022-10-31T02:57:33;97022.00;;;19.90
18704;BMP180;9481;48.796;9.210;2022-10-31T03:00:05;97016.00;;;19.90
18704;BMP180;9481;48.796;9.210;2022-10-31T03:03:08;97015.00;;;19.80
18704;BMP180;9481;48.796;9.210;2022-10-31T03:09:11;97013.00;;;19.80
18704;BMP180;9481;48.796;9.210;2022-10-31T03:12:33;97008.00;;;19.70
18704;BMP180;9481;48.796;9.210;2022-10-31T03:15:28;97010.00;;;19.70
18704;BMP180;9481;48.796;9.210;2022-10-31T03:18:05;97009.00;;;19.70
18704;BMP180;9481;48.796;9.210;2022-10-31T03:23:37;97016.00;;;19.70
18704;BMP180;9481;48.796;9.210;2022-10-31T03:26:07;97006.00;;;19.70
18704;BMP180;9481;48.796;9.210;2022-10-31T03:28:43;97006.00;;;19.70
18704;BMP180;9481;48.796;9.210;2022-10-31T03:31:12;97004.00;;;19.70
18704;BMP180;9481;48.796;9.210;2022-10-31T03:33:43;97009.00;;;19.70
18704;BMP180;9481;48.796;9.210;2022-10-31T03:36:12;96999.00;;;19.70
18704;BMP180;9481;48.796;9.210;2022-10-31T03:38:41;97007.00;;;19.70
18704;BMP180;9481;48.796;9.210;2022-10-31T03:41:15;97007.00;;;19.60
18704;BMP180;9481;48.796;9.210;2022-10-31T03:43:51;97005.00;;;19.60
18704;BMP180;9481;48.796;9.210;2022-10-31T03:46:18;97010.00;;;19.60
18704;BMP180;9481;48.796;9.210;2022-10-31T03:48:43;97005.00;;;19.60
18704;BMP180;9481;48.796;9.210;2022-10-31T03:51:23;97008.00;;;19.50
18704;BMP180;9481;48.796;9.210;2022-10-31T03:54:00;97005.00;;;19.60
18704;BMP180;9481;48.796;9.210;2022-10-31T03:56:40;97003.00;;;19.50
18704;BMP180;9481;48.796;9.210;2022-10-31T03:59:17;96999.00;;;19.50
18704;BMP180;9481;48.796;9.210;2022-10-31T04:01:51;96993.00;;;19.50
18704;BMP180;9481;48.796;9.210;2022-10-31T04:04:19;97002.00;;;19.50
18704;BMP180;9481;48.796;9.210;2022-10-31T04:06:47;97004.00;;;19.50
18704;BMP180;9481;48.796;9.210;2022-10-31T04:09:15;97002.00;;;19.50
18704;BMP180;9481;48.796;9.210;2022-10-31T04:11:50;97002.00;;;19.50
18704;BMP180;9481;48.796;9.210;2022-10-31T04:14:17;96989.00;;;19.40
18704;BMP180;9481;48.796;9.210;2022-10-31T04:16:44;97001.00;;;19.40
18704;BMP180;9481;48.796;9.210;2022-10-31T04:19:14;96991.00;;;19.40
18704;BMP180;9481;48.796;9.210;2022-10-31T04:21:40;96992.00;;;19.40
18704;BMP180;9481;48.796;9.210;2022-10-31T04:24:09;96986.00;;;19.40
18704;BMP180;9481;48.796;9.210;2022-10-31T04:26:35;96990.00;;;19.40
18704;BMP180;9481;48.796;9.210;2022-10-31T04:29:01;96985.00;;;19.40
18704;BMP180;9481;48.796;9.210;2022-10-31T04:31:27;96985.00;;;19.40
18704;BMP180;9481;48.796;9.210;2022-10-31T04:33:52;96989.00;;;19.40
18704;BMP180;9481;48.796;9.210;2022-10-31T04:36:18;96991.00;;;19.40
18704;BMP180;9481;48.796;9.210;2022-10-31T04:38:44;96989.00;;;19.40
18704;BMP180;9481;48.796;9.210;2022-10-31T04:41:10;96972.00;;;19.40
18704;BMP180;9481;48.796;9.210;2022-10-31T04:43:35;96976.00;;;19.30
18704;BMP180;9481;48.796;9.210;2022-10-31T04:46:01;96969.00;;;19.30
18704;BMP180;9481;48.796;9.210;2022-10-31T04:48:27;96972.00;;;19.30
18704;BMP180;9481;48.796;9.210;2022-10-31T04:50:58;96968.00;;;19.30
18704;BMP180;9481;48.796;9.210;2022-10-31T04:53:24;96968.00;;;19.30
18704;BMP180;9481;48.796;9.210;2022-10-31T04:55:49;96966.00;;;19.30
18704;BMP180;9481;48.796;9.210;2022-10-31T04:58:15;96975.00;;;19.20
18704;BMP180;9481;48.796;9.210;2022-10-31T05:00:41;96965.00;;;19.30
18704;BMP180;9481;48.796;9.210;2022-10-31T05:03:06;96968.00;;;19.20
18704;BMP180;9481;48.796;9.210;2022-10-31T05:05:32;96961.00;;;19.20
18704;BMP180;9481;48.796;9.210;2022-10-31T05:07:58;96962.00;;;19.20
18704;BMP180;9481;48.796;9.210;2022-10-31T05:10:27;96952.00;;;19.20
18704;BMP180;9481;48.796;9.210;2022-10-31T05:12:59;96955.00;;;19.20
18704;BMP180;9481;48.796;9.210;2022-10-31T05:15:27;96957.00;;;19.20
18704;BMP180;9481;48.796;9.210;2022-10-31T05:17:54;96956.00;;;19.20
18704;BMP180;9481;48.796;9.210;2022-10-31T05:20:24;96953.00;;;19.10
18704;BMP180;9481;48.796;9.210;2022-10-31T05:22:53;96956.00;;;19.20
18704;BMP180;9481;48.796;9.210;2022-10-31T05:25:22;96950.00;;;19.10
18704;BMP180;9481;48.796;9.210;2022-10-31T05:27:50;96949.00;;;19.10
18704;BMP180;9481;48.796;9.210;2022-10-31T05:30:28;96952.00;;;19.10
18704;BMP180;9481;48.796;9.210;2022-10-31T05:32:55;96947.00;;;19.20
18704;BMP180;9481;48.796;9.210;2022-10-31T05:35:25;96950.00;;;19.20
18704;BMP180;9481;48.796;9.210;2022-10-31T05:37:51;96946.00;;;19.30
18704;BMP180;9481;48.796;9.210;2022-10-31T05:40:19;96956.00;;;19.30
18704;BMP180;9481;48.796;9.210;2022-10-31T05:42:45;96941.00;;;19.30
18704;BMP180;9481;48.796;9.210;2022-10-31T05:45:15;96940.00;;;19.30
18704;BMP180;9481;48.796;9.210;2022-10-31T05:47:41;96945.00;;;19.30
18704;BMP180;9481;48.796;9.210;2022-10-31T05:50:08;96947.00;;;19.20
18704;BMP180;9481;48.796;9.210;2022-10-31T05:52:35;96939.00;;;19.20
18704;BMP180;9481;48.796;9.210;2022-10-31T05:55:01;96936.00;;;19.10
18704;BMP180;9481;48.796;9.210;2022-10-31T05:57:28;96936.00;;;19.10
18704;BMP180;9481;48.796;9.210;2022-10-31T05:59:54;96944.00;;;19.10
18704;BMP180;9481;48.796;9.210;2022-10-31T06:02:21;96938.00;;;19.00
18704;BMP180;9481;48.796;9.210;2022-10-31T06:04:47;96943.00;;;19.00
18704;BMP180;9481;48.796;9.210;2022-10-31T06:07:12;96940.00;;;19.00
18704;BMP180;9481;48.796;9.210;2022-10-31T06:09:38;96941.00;;;18.90
18704;BMP180;9481;48.796;9.210;2022-10-31T06:12:04;96939.00;;;18.90
18704;BMP180;9481;48.796;9.210;2022-10-31T06:14:29;96925.00;;;18.90
18704;BMP180;9481;48.796;9.210;2022-10-31T06:16:56;96936.00;;;18.90
18704;BMP180;9481;48.796;9.210;2022-10-31T06:19:21;96933.00;;;18.90
18704;BMP180;9481;48.796;9.210;2022-10-31T06:21:47;96933.00;;;18.80
18704;BMP180;9481;48.796;9.210;2022-10-31T06:24:13;96933.00;;;18.80
18704;BMP180;9481;48.796;9.210;2022-10-31T06:26:40;96931.00;;;18.80
18704;BMP180;9481;48.796;9.210;2022-10-31T06:29:06;96937.00;;;18.80
18704;BMP180;9481;48.796;9.210;2022-10-31T06:31:31;96940.00;;;18.80
18704;BMP180;9481;48.796;9.210;2022-10-31T06:33:57;96939.00;;;18.80
18704;BMP180;9481;48.796;9.210;2022-10-31T06:36:23;96932.00;;;18.80
18704;BMP180;9481;48.796;9.210;2022-10-31T06:38:48;96937.00;;;18.80
18704;BMP180;9481;48.796;9.210;2022-10-31T06:41:14;96940.00;;;18.80
18704;BMP180;9481;48.796;9.210;2022-10-31T06:43:40;96941.00;;;18.80
18704;BMP180;9481;48.796;9.210;2022-10-31T06:46:06;96944.00;;;18.80
18704;BMP180;9481;48.796;9.210;2022-10-31T06:48:32;96941.00;;;18.80
18704;BMP180;9481;48.796;9.210;2022-10-31T06:51:01;96945.00;;;18.80
18704;BMP180;9481;48.796;9.210;2022-10-31T06:53:28;96943.00;;;18.80
18704;BMP180;9481;48.796;9.210;2022-10-31T06:55:58;96946.00;;;18.80
18704;BMP180;9481;48.796;9.210;2022-10-31T06:58:24;96951.00;;;18.80
18704;BMP180;9481;48.796;9.210;2022-10-31T07:00:49;96940.00;;;18.90
18704;BMP180;9481;48.796;9.210;2022-10-31T07:03:16;96940.00;;;18.90
18704;BMP180;9481;48.796;9.210;2022-10-31T07:05:42;96940.00;;;18.90
18704;BMP180;9481;48.796;9.210;2022-10-31T07:08:11;96948.00;;;18.90
18704;BMP180;9481;48.796;9.210;2022-10-31T07:10:40;96943.00;;;19.00
18704;BMP180;9481;48.796;9.210;2022-10-31T07:13:12;96940.00;;;19.00
18704;BMP180;9481;48.796;9.210;2022-10-31T07:15:40;96939.00;;;19.10
18704;BMP180;9481;48.796;9.210;2022-10-31T07:18:09;96937.00;;;19.10
18704;BMP180;9481;48.796;9.210;2022-10-31T07:20:35;96944.00;;;19.20
18704;BMP180;9481;48.796;9.210;2022-10-31T07:23:00;96947.00;;;19.20
18704;BMP180;9481;48.796;9.210;2022-10-31T07:25:26;96939.00;;;19.30
18704;BMP180;9481;48.796;9.210;2022-10-31T07:27:52;96952.00;;;19.30
18704;BMP180;9481;48.796;9.210;2022-10-31T07:30:18;96951.00;;;19.30
18704;BMP180;9481;48.796;9.210;2022-10-31T07:32:48;96962.00;;;19.30
18704;BMP180;9481;48.796;9.210;2022-10-31T07:35:26;96957.00;;;19.30
18704;BMP180;9481;48.796;9.210;2022-10-31T07:37:52;96952.00;;;19.20
18704;BMP180;9481;48.796;9.210;2022-10-31T07:40:19;96948.00;;;19.30
18704;BMP180;9481;48.796;9.210;2022-10-31T07:42:48;96939.00;;;19.30
18704;BMP180;9481;48.796;9.210;2022-10-31T07:45:19;96939.00;;;19.30
18704;BMP180;9481;48.796;9.210;2022-10-31T07:47:50;96945.00;;;19.30
18704;BMP180;9481;48.796;9.210;2022-10-31T07:50:25;96933.00;;;19.30
18704;BMP180;9481;48.796;9.210;2022-10-31T07:53:09;96943.00;;;19.40
18704;BMP180;9481;48.796;9.210;2022-10-31T07:55:35;96953.00;;;19.40
18704;BMP180;9481;48.796;9.210;2022-10-31T07:58:04;96951.00;;;19.40
18704;BMP180;9481;48.796;9.210;2022-10-31T08:00:32;96943.00;;;19.40
18704;BMP180;9481;48.796;9.210;2022-10-31T08:02:59;96952.00;;;19.50
18704;BMP180;9481;48.796;9.210;2022-10-31T08:05:26;96951.00;;;19.50
18704;BMP180;9481;48.796;9.210;2022-10-31T08:07:52;96948.00;;;19.60
18704;BMP180;9481;48.796;9.210;2022-10-31T08:10:18;96950.00;;;19.60
18704;BMP180;9481;48.796;9.210;2022-10-31T08:12:43;96950.00;;;19.70
18704;BMP180;9481;48.796;9.210;2022-10-31T08:15:09;96949.00;;;19.70
18704;BMP180;9481;48.796;9.210;2022-10-31T08:17:36;96944.00;;;19.70
18704;BMP180;9481;48.796;9.210;2022-10-31T08:20:04;96943.00;;;19.80
18704;BMP180;9481;48.796;9.210;2022-10-31T08:22:31;96943.00;;;19.80
18704;BMP180;9481;48.796;9.210;2022-10-31T08:24:57;96950.00;;;19.80
18704;BMP180;9481;48.796;9.210;2022-10-31T08:27:23;96948.00;;;19.80
18704;BMP180;9481;48.796;9.210;2022-10-31T08:29:48;96940.00;;;19.90
18704;BMP180;9481;48.796;9.210;2022-10-31T08:32:14;96937.00;;;19.90
18704;BMP180;9481;48.796;9.210;2022-10-31T08:34:40;96935.00;;;20.00
18704;BMP180;9481;48.796;9.210;2022-10-31T08:37:05;96939.00;;;20.00
18704;BMP180;9481;48.796;9.210;2022-10-31T08:39:31;96938.00;;;20.10
18704;BMP180;9481;48.796;9.210;2022-10-31T08:41:56;96937.00;;;20.10
18704;BMP180;9481;48.796;9.210;2022-10-31T08:44:22;96926.00;;;20.20
18704;BMP180;9481;48.796;9.210;2022-10-31T08:46:48;96929.00;;;20.20
18704;BMP180;9481;48.796;9.210;2022-10-31T08:49:13;96929.00;;;20.30
18704;BMP180;9481;48.796;9.210;2022-10-31T08:51:39;96922.00;;;20.40
18704;BMP180;9481;48.796;9.210;2022-10-31T08:54:05;96925.00;;;20.40
18704;BMP180;9481;48.796;9.210;2022-10-31T08:56:30;96924.00;;;20.50
18704;BMP180;9481;48.796;9.210;2022-10-31T08:58:56;96927.00;;;20.50
18704;BMP180;9481;48.796;9.210;2022-10-31T09:01:22;96916.00;;;20.60
18704;BMP180;9481;48.796;9.210;2022-10-31T09:03:47;96914.00;;;20.60
18704;BMP180;9481;48.796;9.210;2022-10-31T09:06:13;96922.00;;;20.70
18704;BMP180;9481;48.796;9.210;2022-10-31T09:08:39;96914.00;;;20.70
18704;BMP180;9481;48.796;9.210;2022-10-31T09:11:05;96920.00;;;20.70
18704;BMP180;9481;48.796;9.210;2022-10-31T09:13:31;96916.00;;;20.70
18704;BMP180;9481;48.796;9.210;2022-10-31T09:15:57;96914.00;;;20.70
18704;BMP180;9481;48.796;9.210;2022-10-31T09:18:25;96918.00;;;20.70
18704;BMP180;9481;48.796;9.210;2022-10-31T09:20:54;96922.00;;;20.70
18704;BMP180;9481;48.796;9.210;2022-10-31T09:23:22;96911.00;;;20.70
18704;BMP180;9481;48.796;9.210;2022-10-31T09:25:50;96919.00;;;20.80
18704;BMP180;9481;48.796;9.210;2022-10-31T09:28:20;96919.00;;;20.80
18704;BMP180;9481;48.796;9.210;2022-10-31T09:30:48;96920.00;;;20.90
18704;BMP180;9481;48.796;9.210;2022-10-31T09:33:15;96917.00;;;20.90
18704;BMP180;9481;48.796;9.210;2022-10-31T09:35:41;96916.00;;;21.00
18704;BMP180;9481;48.796;9.210;2022-10-31T09:38:19;96910.00;;;20.90
18704;BMP180;9481;48.796;9.210;2022-10-31T09:46:54;96894.00;;;21.00
18704;BMP180;9481;48.796;9.210;2022-10-31T09:49:32;96908.00;;;21.10
18704;BMP180;9481;48.796;9.210;2022-10-31T09:54:39;96902.00;;;21.20
18704;BMP180;9481;48.796;9.210;2022-10-31T09:57:14;96913.00;;;21.20
18704;BMP180;9481;48.796;9.210;2022-10-31T09:59:43;96906.00;;;21.30
18704;BMP180;9481;48.796;9.210;2022-10-31T10:02:24;96898.00;;;21.30
18704;BMP180;9481;48.796;9.210;2022-10-31T10:05:01;96905.00;;;21.30
18704;BMP180;9481;48.796;9.210;2022-10-31T10:10:00;96903.00;;;21.50
18704;BMP180;9481;48.796;9.210;2022-10-31T10:25:14;96890.00;;;21.80
18704;BMP180;9481;48.796;9.210;2022-10-31T10:28:23;96896.00;;;21.90
18704;BMP180;9481;48.796;9.210;2022-10-31T10:31:03;96891.00;;;22.00
18704;BMP180;9481;48.796;9.210;2022-10-31T10:34:00;96893.00;;;22.00
18704;BMP180;9481;48.796;9.210;2022-10-31T10:36:40;96890.00;;;22.10
18704;BMP180;9481;48.796;9.210;2022-10-31T10:41:49;96893.00;;;22.20
18704;BMP180;9481;48.796;9.210;2022-10-31T10:44:38;96889.00;;;22.20
18704;BMP180;9481;48.796;9.210;2022-10-31T10:47:26;96881.00;;;22.20
18704;BMP180;9481;48.796;9.210;2022-10-31T10:50:15;96871.00;;;22.20
18704;BMP180;9481;48.796;9.210;2022-10-31T10:59:16;96870.00;;;22.30
18704;BMP180;9481;48.796;9.210;2022-10-31T11:01:44;96869.00;;;22.30
18704;BMP180;9481;48.796;9.210;2022-10-31T11:04:32;96862.00;;;22.30
18704;BMP180;9481;48.796;9.210;2022-10-31T11:07:10;96861.00;;;22.30
18704;BMP180;9481;48.796;9.210;2022-10-31T11:09:37;96855.00;;;22.40
18704;BMP180;9481;48.796;9.210;2022-10-31T11:12:19;96857.00;;;22.40
18704;BMP180;9481;48.796;9.210;2022-10-31T11:14:56;96849.00;;;22.60
18704;BMP180;9481;48.796;9.210;2022-10-31T11:17:33;96844.00;;;22.90
18704;BMP180;9481;48.796;9.210;2022-10-31T11:22:45;96839.00;;;23.70
18704;BMP180;9481;48.796;9.210;2022-10-31T11:25:23;96834.00;;;24.20
18704;BMP180;9481;48.796;9.210;2022-10-31T11:28:18;96828.00;;;24.60
18704;BMP180;9481;48.796;9.210;2022-10-31T11:30:52;96828.00;;;24.90
18704;BMP180;9481;48.796;9.210;2022-10-31T11:33:35;96816.00;;;25.10
18704;BMP180;9481;48.796;9.210;2022-10-31T11:36:16;96818.00;;;25.20
18704;BMP180;9481;48.796;9.210;2022-10-31T11:38:44;96822.00;;;25.40
18704;BMP180;9481;48.796;9.210;2022-10-31T11:41:15;96811.00;;;25.60
18704;BMP180;9481;48.796;9.210;2022-10-31T11:44:02;96806.00;;;25.80
18704;BMP180;9481;48.796;9.210;2022-10-31T11:46:48;96813.00;;;25.90
18704;BMP180;9481;48.796;9.210;2022-10-31T11:49:40;96818.00;;;25.90
18704;BMP180;9481;48.796;9.210;2022-10-31T11:52:16;96812.00;;;25.90
18704;BMP180;9481;48.796;9.210;2022-10-31T11:54:57;96818.00;;;25.90
18704;BMP180;9481;48.796;9.210;2022-10-31T11:57:31;96806.00;;;25.90
18704;BMP180;9481;48.796;9.210;2022-10-31T12:00:04;96805.00;;;25.80
18704;BMP180;9481;48.796;9.210;2022-10-31T12:02:30;96797.00;;;25.80
18704;BMP180;9481;48.796;9.210;2022-10-31T12:05:18;96787.00;;;25.70
18704;BMP180;9481;48.796;9.210;2022-10-31T12:07:48;96791.00;;;25.70
18704;BMP180;9481;48.796;9.210;2022-10-31T12:10:14;96794.00;;;25.60
18704;BMP180;9481;48.796;9.210;2022-10-31T12:13:08;96787.00;;;25.50
18704;BMP180;9481;48.796;9.210;2022-10-31T12:15:43;96785.00;;;25.70
18704;BMP180;9481;48.796;9.210;2022-10-31T12:29:50;96777.00;;;26.40
18704;BMP180;9481;48.796;9.210;2022-10-31T12:35:45;96761.00;;;25.90
18704;BMP180;9481;48.796;9.210;2022-10-31T12:38:28;96749.00;;;25.70
18704;BMP180;9481;48.796;9.210;2022-10-31T12:47:22;96745.00;;;25.00
18704;BMP180;9481;48.796;9.210;2022-10-31T12:53:04;96728.00;;;24.60
18704;BMP180;9481;48.796;9.210;2022-10-31T12:55:55;96722.00;;;24.40
18704;BMP180;9481;48.796;9.210;2022-10-31T12:58:37;96725.00;;;24.30
18704;BMP180;9481;48.796;9.210;2022-10-31T13:01:21;96710.00;;;24.10
18704;BMP180;9481;48.796;9.210;2022-10-31T13:03:59;96713.00;;;24.10
18704;BMP180;9481;48.796;9.210;2022-10-31T13:06:38;96708.00;;;24.00
18704;BMP180;9481;48.796;9.210;2022-10-31T13:09:11;96705.00;;;23.90
18704;BMP180;9481;48.796;9.210;2022-10-31T13:11:43;96701.00;;;23.90
18704;BMP180;9481;48.796;9.210;2022-10-31T13:14:46;96702.00;;;23.70
18704;BMP180;9481;48.796;9.210;2022-10-31T13:17:27;96699.00;;;23.60
18704;BMP180;9481;48.796;9.210;2022-10-31T13:20:15;96697.00;;;23.60
18704;BMP180;9481;48.796;9.210;2022-10-31T13:22:48;96691.00;;;23.60
18704;BMP180;9481;48.796;9.210;2022-10-31T13:25:25;96696.00;;;23.50
18704;BMP180;9481;48.796;9.210;2022-10-31T13:28:16;96686.00;;;23.40
18704;BMP180;9481;48.796;9.210;2022-10-31T13:30:51;96683.00;;;23.50
18704;BMP180;9481;48.796;9.210;2022-10-31T13:33:27;96681.00;;;23.40
18704;BMP180;9481;48.796;9.210;2022-10-31T13:36:41;96682.00;;;23.40
18704;BMP180;9481;48.796;9.210;2022-10-31T13:42:37;96682.00;;;24.60
18704;BMP180;9481;48.796;9.210;2022-10-31T13:45:19;96687.00;;;25.60
18704;BMP180;9481;48.796;9.210;2022-10-31T13:50:33;96671.00;;;26.30
18704;BMP180;9481;48.796;9.210;2022-10-31T13:55:47;96670.00;;;26.20
18704;BMP180;9481;48.796;9.210;2022-10-31T13:58:28;96659.00;;;26.00
18704;BMP180;9481;48.796;9.210;2022-10-31T14:01:21;96663.00;;;25.80
18704;BMP180;9481;48.796;9.210;2022-10-31T14:04:14;96657.00;;;25.60
18704;BMP180;9481;48.796;9.210;2022-10-31T14:09:34;96656.00;;;25.40
18704;BMP180;9481;48.796;9.210;2022-10-31T14:14:53;96660.00;;;25.10
18704;BMP180;9481;48.796;9.210;2022-10-31T14:17:25;96658.00;;;25.10
18704;BMP180;9481;48.796;9.210;2022-10-31T14:22:39;96631.00;;;24.90
18704;BMP180;9481;48.796;9.210;2022-10-31T14:25:34;96641.00;;;24.70
18704;BMP180;9481;48.796;9.210;2022-10-31T14:28:20;96641.00;;;24.70
18704;BMP180;9481;48.796;9.210;2022-10-31T14:30:56;96639.00;;;24.60
18704;BMP180;9481;48.796;9.210;2022-10-31T14:33:25;96640.00;;;24.50
18704;BMP180;9481;48.796;9.210;2022-10-31T14:36:10;96644.00;;;24.40
18704;BMP180;9481;48.796;9.210;2022-10-31T14:39:31;96646.00;;;24.20
18704;BMP180;9481;48.796;9.210;2022-10-31T14:50:46;96640.00;;;23.80
18704;BMP180;9481;48.796;9.210;2022-10-31T14:53:25;96630.00;;;23.80
18704;BMP180;9481;48.796;9.210;2022-10-31T14:55:55;96622.00;;;23.70
18704;BMP180;9481;48.796;9.210;2022-10-31T15:00:57;96625.00;;;23.60
18704;BMP180;9481;48.796;9.210;2022-10-31T15:03:34;96635.00;;;23.60
18704;BMP180;9481;48.796;9.210;2022-10-31T15:06:13;96626.00;;;23.50
18704;BMP180;9481;48.796;9.210;2022-10-31T15:08:45;96628.00;;;23.50
18704;BMP180;9481;48.796;9.210;2022-10-31T15:11:25;96625.00;;;23.50
18704;BMP180;9481;48.796;9.210;2022-10-31T15:13:55;96623.00;;;23.50
18704;BMP180;9481;48.796;9.210;2022-10-31T15:16:32;96615.00;;;23.40
18704;BMP180;9481;48.796;9.210;2022-10-31T15:19:04;96617.00;;;23.40
18704;BMP180;9481;48.796;9.210;2022-10-31T15:21:32;96617.00;;;23.40
18704;BMP180;9481;48.796;9.210;2022-10-31T15:24:01;96615.00;;;23.30
18704;BMP180;9481;48.796;9.210;2022-10-31T15:26:38;96618.00;;;23.30
18704;BMP180;9481;48.796;9.210;2022-10-31T15:29:25;96611.00;;;23.20
18704;BMP180;9481;48.796;9.210;2022-10-31T15:31:57;96615.00;;;23.20
18704;BMP180;9481;48.796;9.210;2022-10-31T15:34:50;96604.00;;;23.10
18704;BMP180;9481;48.796;9.210;2022-10-31T15:37:20;96600.00;;;23.10
18704;BMP180;9481;48.796;9.210;2022-10-31T15:39:48;96604.00;;;23.10
18704;BMP180;9481;48.796;9.210;2022-10-31T15:42:35;96597.00;;;23.00
18704;BMP180;9481;48.796;9.210;2022-10-31T15:50:37;96601.00;;;22.80
18704;BMP180;9481;48.796;9.210;2022-10-31T15:53:06;96601.00;;;22.80
18704;BMP180;9481;48.796;9.210;2022-10-31T15:55:46;96595.00;;;22.70
18704;BMP180;9481;48.796;9.210;2022-10-31T15:58:16;96594.00;;;22.60
18704;BMP180;9481;48.796;9.210;2022-10-31T16:00:42;96581.00;;;22.60
18704;BMP180;9481;48.796;9.210;2022-10-31T16:05:51;96585.00;;;22.40
18704;BMP180;9481;48.796;9.210;2022-10-31T16:11:32;96585.00;;;22.20
18704;BMP180;9481;48.796;9.210;2022-10-31T16:14:27;96583.00;;;22.20
18704;BMP180;9481;48.796;9.210;2022-10-31T16:16:57;96592.00;;;22.20
18704;BMP180;9481;48.796;9.210;2022-10-31T16:19:28;96581.00;;;22.10
18704;BMP180;9481;48.796;9.210;2022-10-31T16:22:06;96586.00;;;22.10
18704;BMP180;9481;48.796;9.210;2022-10-31T16:24:48;96584.00;;;22.00
18704;BMP180;9481;48.796;9.210;2022-10-31T16:27:30;96579.00;;;21.90
18704;BMP180;9481;48.796;9.210;2022-10-31T16:29:59;96579.00;;;21.90
18704;BMP180;9481;48.796;9.210;2022-10-31T16:35:36;96575.00;;;21.80
18704;BMP180;9481;48.796;9.210;2022-10-31T16:38:03;96568.00;;;21.80
18704;BMP180;9481;48.796;9.210;2022-10-31T16:40:30;96571.00;;;21.80
18704;BMP180;9481;48.796;9.210;2022-10-31T16:42:58;96577.00;;;21.70
18704;BMP180;9481;48.796;9.210;2022-10-31T16:45:30;96587.00;;;21.70
18704;BMP180;9481;48.796;9.210;2022-10-31T16:48:12;96576.00;;;21.60
18704;BMP180;9481;48.796;9.210;2022-10-31T16:50:41;96583.00;;;21.60